sensor_id;sensor_type;location;lat;lon;timestamp;P1;durP1;ratioP1;P2;durP2;ratioP2
25153;SDS011;47555;51.038;6.280;2023-08-12T00:00:10;12.48;;;9.30;;
25153;SDS011;47555;51.038;6.280;2023-08-12T00:02:37;12.52;;;9.25;;
25153;SDS011;47555;51.038;6.280;2023-08-12T00:05:04;10.57;;;8.48;;
25153;SDS011;47555;51.038;6.280;2023-08-12T00:07:30;12.55;;;8.50;;
25153;SDS011;47555;51.038;6.280;2023-08-12T00:09:57;15.82;;;11.32;;
25153;SDS011;47555;51.038;6.280;2023-08-12T00:12:23;11.75;;;7.53;;
25153;SDS011;47555;51.038;6.280;2023-08-12T00:14:49;10.57;;;8.02;;
25153;SDS011;47555;51.038;6.280;2023-08-12T00:17:15;11.85;;;8.52;;
25153;SDS011;47555;51.038;6.280;2023-08-12T00:19:41;13.15;;;9.02;;
25153;SDS011;47555;51.038;6.280;2023-08-12T00:22:07;11.13;;;9.13;;
25153;SDS011;47555;51.038;6.280;2023-08-12T00:24:33;12.55;;;8.70;;
25153;SDS011;47555;51.038;6.280;2023-08-12T00:26:59;11.60;;;7.82;;
25153;SDS011;47555;51.038;6.280;2023-08-12T00:29:25;11.00;;;8.65;;
25153;SDS011;47555;51.038;6.280;2023-08-12T00:31:51;10.55;;;8.30;;
25153;SDS011;47555;51.038;6.280;2023-08-12T00:34:17;15.63;;;11.38;;
25153;SDS011;47555;51.038;6.280;2023-08-12T00:36:43;9.90;;;7.72;;
25153;SDS011;47555;51.038;6.280;2023-08-12T00:39:09;12.80;;;9.05;;
25153;SDS011;47555;51.038;6.280;2023-08-12T00:41:35;15.52;;;12.07;;
25153;SDS011;47555;51.038;6.280;2023-08-12T00:44:01;10.57;;;8.10;;
25153;SDS011;47555;51.038;6.280;2023-08-12T00:46:27;10.43;;;8.77;;
25153;SDS011;47555;51.038;6.280;2023-08-12T00:48:53;11.25;;;8.05;;
25153;SDS011;47555;51.038;6.280;2023-08-12T00:51:19;9.77;;;7.70;;
25153;SDS011;47555;51.038;6.280;2023-08-12T00:53:45;10.85;;;8.48;;
25153;SDS011;47555;51.038;6.280;2023-08-12T00:56:12;11.95;;;8.95;;
25153;SDS011;47555;51.038;6.280;2023-08-12T00:58:39;11.05;;;8.05;;
25153;SDS011;47555;51.038;6.280;2023-08-12T01:01:05;11.23;;;8.55;;
25153;SDS011;47555;51.038;6.280;2023-08-12T01:03:31;11.70;;;8.45;;
25153;SDS011;47555;51.038;6.280;2023-08-12T01:06:00;11.05;;;8.30;;
25153;SDS011;47555;51.038;6.280;2023-08-12T01:08:27;10.25;;;8.57;;
25153;SDS011;47555;51.038;6.280;2023-08-12T01:10:56;14.23;;;9.55;;
25153;SDS011;47555;51.038;6.280;2023-08-12T01:16:13;16.10;;;10.48;;
25153;SDS011;47555;51.038;6.280;2023-08-12T01:18:40;13.55;;;9.60;;
25153;SDS011;47555;51.038;6.280;2023-08-12T01:21:06;14.13;;;10.43;;
25153;SDS011;47555;51.038;6.280;2023-08-12T01:23:33;14.90;;;10.23;;
25153;SDS011;47555;51.038;6.280;2023-08-12T01:25:59;13.75;;;9.93;;
25153;SDS011;47555;51.038;6.280;2023-08-12T01:28:25;15.88;;;10.70;;
25153;SDS011;47555;51.038;6.280;2023-08-12T01:30:52;14.05;;;10.32;;
25153;SDS011;47555;51.038;6.280;2023-08-12T01:38:18;15.32;;;10.07;;
25153;SDS011;47555;51.038;6.280;2023-08-12T01:40:48;11.45;;;9.27;;
25153;SDS011;47555;51.038;6.280;2023-08-12T01:43:14;13.90;;;10.57;;
25153;SDS011;47555;51.038;6.280;2023-08-12T01:45:41;11.98;;;9.23;;
25153;SDS011;47555;51.038;6.280;2023-08-12T01:48:08;10.73;;;8.30;;
25153;SDS011;47555;51.038;6.280;2023-08-12T01:50:34;14.60;;;10.02;;
25153;SDS011;47555;51.038;6.280;2023-08-12T01:53:00;13.77;;;11.32;;
25153;SDS011;47555;51.038;6.280;2023-08-12T01:55:26;14.70;;;10.98;;
25153;SDS011;47555;51.038;6.280;2023-08-12T01:57:52;12.75;;;10.23;;
25153;SDS011;47555;51.038;6.280;2023-08-12T02:00:18;12.13;;;9.52;;
25153;SDS011;47555;51.038;6.280;2023-08-12T02:02:44;15.43;;;10.45;;
25153;SDS011;47555;51.038;6.280;2023-08-12T02:05:13;14.45;;;10.07;;
25153;SDS011;47555;51.038;6.280;2023-08-12T02:07:39;13.07;;;9.43;;
25153;SDS011;47555;51.038;6.280;2023-08-12T02:10:05;16.63;;;10.65;;
25153;SDS011;47555;51.038;6.280;2023-08-12T02:12:31;13.73;;;10.60;;
25153;SDS011;47555;51.038;6.280;2023-08-12T02:14:57;13.13;;;9.68;;
25153;SDS011;47555;51.038;6.280;2023-08-12T02:17:23;19.05;;;12.18;;
25153;SDS011;47555;51.038;6.280;2023-08-12T02:19:49;16.70;;;11.75;;
25153;SDS011;47555;51.038;6.280;2023-08-12T02:22:15;11.95;;;9.80;;
25153;SDS011;47555;51.038;6.280;2023-08-12T02:24:41;12.77;;;10.32;;
25153;SDS011;47555;51.038;6.280;2023-08-12T02:27:07;15.40;;;10.63;;
25153;SDS011;47555;51.038;6.280;2023-08-12T02:29:33;14.80;;;11.02;;
25153;SDS011;47555;51.038;6.280;2023-08-12T02:31:59;21.42;;;13.85;;
25153;SDS011;47555;51.038;6.280;2023-08-12T02:34:26;19.77;;;12.80;;
25153;SDS011;47555;51.038;6.280;2023-08-12T02:36:52;14.18;;;10.77;;
25153;SDS011;47555;51.038;6.280;2023-08-12T02:39:18;22.17;;;13.30;;
25153;SDS011;47555;51.038;6.280;2023-08-12T02:41:43;14.73;;;11.98;;
25153;SDS011;47555;51.038;6.280;2023-08-12T02:44:09;16.67;;;11.65;;
25153;SDS011;47555;51.038;6.280;2023-08-12T02:46:35;18.08;;;12.45;;
25153;SDS011;47555;51.038;6.280;2023-08-12T02:49:01;20.60;;;14.98;;
25153;SDS011;47555;51.038;6.280;2023-08-12T02:51:27;22.20;;;16.13;;
25153;SDS011;47555;51.038;6.280;2023-08-12T02:53:53;24.55;;;15.75;;
25153;SDS011;47555;51.038;6.280;2023-08-12T02:56:19;23.77;;;15.93;;
25153;SDS011;47555;51.038;6.280;2023-08-12T02:58:45;20.83;;;14.50;;
25153;SDS011;47555;51.038;6.280;2023-08-12T03:01:12;20.70;;;15.35;;
25153;SDS011;47555;51.038;6.280;2023-08-12T03:03:38;23.02;;;15.32;;
25153;SDS011;47555;51.038;6.280;2023-08-12T03:06:05;16.63;;;11.48;;
25153;SDS011;47555;51.038;6.280;2023-08-12T03:08:34;21.55;;;15.13;;
25153;SDS011;47555;51.038;6.280;2023-08-12T03:11:00;29.33;;;17.73;;
25153;SDS011;47555;51.038;6.280;2023-08-12T03:13:27;20.88;;;15.95;;
25153;SDS011;47555;51.038;6.280;2023-08-12T03:15:53;23.73;;;16.25;;
25153;SDS011;47555;51.038;6.280;2023-08-12T03:18:19;23.17;;;16.70;;
25153;SDS011;47555;51.038;6.280;2023-08-12T03:20:46;20.63;;;14.55;;
25153;SDS011;47555;51.038;6.280;2023-08-12T03:23:12;26.52;;;17.90;;
25153;SDS011;47555;51.038;6.280;2023-08-12T03:25:40;23.05;;;16.23;;
25153;SDS011;47555;51.038;6.280;2023-08-12T03:28:06;21.02;;;14.50;;
25153;SDS011;47555;51.038;6.280;2023-08-12T03:30:32;21.80;;;15.63;;
25153;SDS011;47555;51.038;6.280;2023-08-12T03:32:58;25.02;;;17.02;;
25153;SDS011;47555;51.038;6.280;2023-08-12T03:35:24;21.48;;;14.75;;
25153;SDS011;47555;51.038;6.280;2023-08-12T03:37:50;24.08;;;16.38;;
25153;SDS011;47555;51.038;6.280;2023-08-12T03:40:18;21.60;;;15.43;;
25153;SDS011;47555;51.038;6.280;2023-08-12T03:42:44;21.95;;;16.17;;
25153;SDS011;47555;51.038;6.280;2023-08-12T03:45:10;21.73;;;15.48;;
25153;SDS011;47555;51.038;6.280;2023-08-12T03:47:36;19.75;;;13.55;;
25153;SDS011;47555;51.038;6.280;2023-08-12T03:50:02;20.00;;;13.50;;
25153;SDS011;47555;51.038;6.280;2023-08-12T03:52:28;19.75;;;13.60;;
25153;SDS011;47555;51.038;6.280;2023-08-12T03:54:54;15.50;;;12.00;;
25153;SDS011;47555;51.038;6.280;2023-08-12T03:57:20;14.00;;;10.65;;
25153;SDS011;47555;51.038;6.280;2023-08-12T03:59:46;20.10;;;13.18;;
25153;SDS011;47555;51.038;6.280;2023-08-12T04:02:12;18.58;;;12.43;;
25153;SDS011;47555;51.038;6.280;2023-08-12T04:04:38;17.00;;;12.15;;
25153;SDS011;47555;51.038;6.280;2023-08-12T04:07:04;16.00;;;11.45;;
25153;SDS011;47555;51.038;6.280;2023-08-12T04:09:29;20.73;;;12.63;;
25153;SDS011;47555;51.038;6.280;2023-08-12T04:11:55;16.65;;;11.63;;
25153;SDS011;47555;51.038;6.280;2023-08-12T04:14:22;18.23;;;11.98;;
25153;SDS011;47555;51.038;6.280;2023-08-12T04:16:48;17.75;;;11.85;;
25153;SDS011;47555;51.038;6.280;2023-08-12T04:19:13;18.60;;;13.13;;
25153;SDS011;47555;51.038;6.280;2023-08-12T04:21:42;22.67;;;14.57;;
25153;SDS011;47555;51.038;6.280;2023-08-12T04:26:38;19.33;;;13.05;;
25153;SDS011;47555;51.038;6.280;2023-08-12T04:29:04;22.77;;;15.75;;
25153;SDS011;47555;51.038;6.280;2023-08-12T04:31:30;19.05;;;13.20;;
25153;SDS011;47555;51.038;6.280;2023-08-12T04:33:56;20.75;;;13.80;;
25153;SDS011;47555;51.038;6.280;2023-08-12T04:36:23;20.38;;;14.27;;
25153;SDS011;47555;51.038;6.280;2023-08-12T04:38:49;19.75;;;13.30;;
25153;SDS011;47555;51.038;6.280;2023-08-12T04:41:15;20.40;;;13.77;;
25153;SDS011;47555;51.038;6.280;2023-08-12T04:43:41;19.67;;;13.15;;
25153;SDS011;47555;51.038;6.280;2023-08-12T04:46:07;21.20;;;14.98;;
25153;SDS011;47555;51.038;6.280;2023-08-12T04:48:33;16.27;;;11.25;;
25153;SDS011;47555;51.038;6.280;2023-08-12T04:50:59;28.35;;;14.80;;
25153;SDS011;47555;51.038;6.280;2023-08-12T04:53:26;21.98;;;14.48;;
25153;SDS011;47555;51.038;6.280;2023-08-12T04:55:53;16.83;;;12.20;;
25153;SDS011;47555;51.038;6.280;2023-08-12T04:58:19;19.98;;;12.45;;
25153;SDS011;47555;51.038;6.280;2023-08-12T05:00:45;20.17;;;13.55;;
25153;SDS011;47555;51.038;6.280;2023-08-12T05:03:12;18.17;;;12.20;;
25153;SDS011;47555;51.038;6.280;2023-08-12T05:05:38;18.38;;;12.07;;
25153;SDS011;47555;51.038;6.280;2023-08-12T05:08:04;19.25;;;12.57;;
25153;SDS011;47555;51.038;6.280;2023-08-12T05:10:29;18.50;;;12.65;;
25153;SDS011;47555;51.038;6.280;2023-08-12T05:12:57;20.63;;;13.00;;
25153;SDS011;47555;51.038;6.280;2023-08-12T05:15:27;16.58;;;11.50;;
25153;SDS011;47555;51.038;6.280;2023-08-12T05:17:53;18.55;;;12.00;;
25153;SDS011;47555;51.038;6.280;2023-08-12T05:20:19;16.83;;;11.85;;
25153;SDS011;47555;51.038;6.280;2023-08-12T05:22:45;18.10;;;11.85;;
25153;SDS011;47555;51.038;6.280;2023-08-12T05:25:11;17.27;;;11.52;;
25153;SDS011;47555;51.038;6.280;2023-08-12T05:27:37;16.25;;;11.30;;
25153;SDS011;47555;51.038;6.280;2023-08-12T05:30:03;16.08;;;11.82;;
25153;SDS011;47555;51.038;6.280;2023-08-12T05:32:29;17.02;;;12.32;;
25153;SDS011;47555;51.038;6.280;2023-08-12T05:34:55;15.73;;;11.93;;
25153;SDS011;47555;51.038;6.280;2023-08-12T05:37:21;18.67;;;11.52;;
25153;SDS011;47555;51.038;6.280;2023-08-12T05:39:47;16.25;;;11.90;;
25153;SDS011;47555;51.038;6.280;2023-08-12T05:42:13;14.43;;;11.68;;
25153;SDS011;47555;51.038;6.280;2023-08-12T05:44:40;15.02;;;10.50;;
25153;SDS011;47555;51.038;6.280;2023-08-12T05:47:07;11.93;;;9.70;;
25153;SDS011;47555;51.038;6.280;2023-08-12T05:49:33;11.57;;;8.10;;
25153;SDS011;47555;51.038;6.280;2023-08-12T05:51:59;11.35;;;8.30;;
25153;SDS011;47555;51.038;6.280;2023-08-12T05:54:25;11.80;;;8.20;;
25153;SDS011;47555;51.038;6.280;2023-08-12T05:56:51;9.82;;;7.32;;
25153;SDS011;47555;51.038;6.280;2023-08-12T05:59:17;8.98;;;6.97;;
25153;SDS011;47555;51.038;6.280;2023-08-12T06:01:43;9.00;;;6.53;;
25153;SDS011;47555;51.038;6.280;2023-08-12T06:04:09;8.40;;;5.88;;
25153;SDS011;47555;51.038;6.280;2023-08-12T06:06:35;6.28;;;5.40;;
25153;SDS011;47555;51.038;6.280;2023-08-12T06:09:01;8.13;;;5.38;;
25153;SDS011;47555;51.038;6.280;2023-08-12T06:11:26;8.60;;;5.47;;
25153;SDS011;47555;51.038;6.280;2023-08-12T06:13:52;7.07;;;5.18;;
25153;SDS011;47555;51.038;6.280;2023-08-12T06:16:18;6.15;;;4.80;;
25153;SDS011;47555;51.038;6.280;2023-08-12T06:18:44;7.72;;;5.30;;
25153;SDS011;47555;51.038;6.280;2023-08-12T06:21:10;7.43;;;5.05;;
25153;SDS011;47555;51.038;6.280;2023-08-12T06:23:36;6.97;;;4.53;;
25153;SDS011;47555;51.038;6.280;2023-08-12T06:26:02;6.30;;;4.50;;
25153;SDS011;47555;51.038;6.280;2023-08-12T06:28:28;6.72;;;4.38;;
25153;SDS011;47555;51.038;6.280;2023-08-12T06:30:54;8.25;;;4.88;;
25153;SDS011;47555;51.038;6.280;2023-08-12T06:33:20;5.07;;;3.90;;
25153;SDS011;47555;51.038;6.280;2023-08-12T06:35:46;4.30;;;3.85;;
25153;SDS011;47555;51.038;6.280;2023-08-12T06:38:12;6.50;;;4.13;;
25153;SDS011;47555;51.038;6.280;2023-08-12T06:40:38;5.55;;;4.35;;
25153;SDS011;47555;51.038;6.280;2023-08-12T06:43:04;4.72;;;3.63;;
25153;SDS011;47555;51.038;6.280;2023-08-12T06:45:32;5.95;;;4.70;;
25153;SDS011;47555;51.038;6.280;2023-08-12T06:47:58;4.90;;;3.95;;
25153;SDS011;47555;51.038;6.280;2023-08-12T06:50:24;5.00;;;4.07;;
25153;SDS011;47555;51.038;6.280;2023-08-12T06:52:50;6.20;;;4.13;;
25153;SDS011;47555;51.038;6.280;2023-08-12T06:55:16;4.43;;;3.92;;
25153;SDS011;47555;51.038;6.280;2023-08-12T06:57:42;7.15;;;3.80;;
25153;SDS011;47555;51.038;6.280;2023-08-12T07:00:08;7.20;;;4.20;;
25153;SDS011;47555;51.038;6.280;2023-08-12T07:02:34;4.82;;;3.92;;
25153;SDS011;47555;51.038;6.280;2023-08-12T07:05:00;3.65;;;3.33;;
25153;SDS011;47555;51.038;6.280;2023-08-12T07:07:26;4.55;;;3.75;;
25153;SDS011;47555;51.038;6.280;2023-08-12T07:09:52;5.53;;;3.75;;
25153;SDS011;47555;51.038;6.280;2023-08-12T07:12:18;3.60;;;3.30;;
25153;SDS011;47555;51.038;6.280;2023-08-12T07:14:44;5.47;;;3.30;;
25153;SDS011;47555;51.038;6.280;2023-08-12T07:17:10;4.72;;;3.25;;
25153;SDS011;47555;51.038;6.280;2023-08-12T07:19:36;6.18;;;3.60;;
25153;SDS011;47555;51.038;6.280;2023-08-12T07:22:02;3.90;;;3.33;;
25153;SDS011;47555;51.038;6.280;2023-08-12T07:24:28;4.07;;;3.22;;
25153;SDS011;47555;51.038;6.280;2023-08-12T07:27:00;3.45;;;2.70;;
25153;SDS011;47555;51.038;6.280;2023-08-12T07:29:26;4.30;;;2.95;;
25153;SDS011;47555;51.038;6.280;2023-08-12T07:31:52;2.70;;;2.38;;
25153;SDS011;47555;51.038;6.280;2023-08-12T07:34:18;4.22;;;2.85;;
25153;SDS011;47555;51.038;6.280;2023-08-12T07:36:47;3.35;;;3.03;;
25153;SDS011;47555;51.038;6.280;2023-08-12T07:39:13;5.68;;;2.88;;
25153;SDS011;47555;51.038;6.280;2023-08-12T07:41:39;4.47;;;2.33;;
25153;SDS011;47555;51.038;6.280;2023-08-12T07:44:05;6.20;;;2.60;;
25153;SDS011;47555;51.038;6.280;2023-08-12T07:46:31;2.83;;;2.47;;
25153;SDS011;47555;51.038;6.280;2023-08-12T07:48:57;3.13;;;2.50;;
25153;SDS011;47555;51.038;6.280;2023-08-12T07:51:23;3.03;;;2.50;;
25153;SDS011;47555;51.038;6.280;2023-08-12T07:53:49;3.25;;;2.60;;
25153;SDS011;47555;51.038;6.280;2023-08-12T07:56:15;2.83;;;2.40;;
25153;SDS011;47555;51.038;6.280;2023-08-12T07:58:41;3.08;;;2.25;;
25153;SDS011;47555;51.038;6.280;2023-08-12T08:01:07;2.70;;;2.40;;
25153;SDS011;47555;51.038;6.280;2023-08-12T08:03:34;3.50;;;2.40;;
25153;SDS011;47555;51.038;6.280;2023-08-12T08:06:00;2.45;;;2.13;;
25153;SDS011;47555;51.038;6.280;2023-08-12T08:08:26;2.47;;;2.15;;
25153;SDS011;47555;51.038;6.280;2023-08-12T08:10:52;3.67;;;2.30;;
25153;SDS011;47555;51.038;6.280;2023-08-12T08:13:18;2.10;;;1.90;;
25153;SDS011;47555;51.038;6.280;2023-08-12T08:15:44;2.75;;;2.10;;
25153;SDS011;47555;51.038;6.280;2023-08-12T08:18:10;2.95;;;1.92;;
25153;SDS011;47555;51.038;6.280;2023-08-12T08:20:36;2.97;;;2.13;;
25153;SDS011;47555;51.038;6.280;2023-08-12T08:23:02;3.00;;;2.10;;
25153;SDS011;47555;51.038;6.280;2023-08-12T08:25:28;2.70;;;1.77;;
25153;SDS011;47555;51.038;6.280;2023-08-12T08:27:54;3.40;;;2.28;;
25153;SDS011;47555;51.038;6.280;2023-08-12T08:30:20;2.28;;;2.03;;
25153;SDS011;47555;51.038;6.280;2023-08-12T08:32:47;2.70;;;1.80;;
25153;SDS011;47555;51.038;6.280;2023-08-12T08:35:14;2.15;;;1.88;;
25153;SDS011;47555;51.038;6.280;2023-08-12T08:37:40;2.00;;;1.80;;
25153;SDS011;47555;51.038;6.280;2023-08-12T08:40:06;3.15;;;2.30;;
25153;SDS011;47555;51.038;6.280;2023-08-12T08:42:33;2.25;;;1.95;;
25153;SDS011;47555;51.038;6.280;2023-08-12T08:45:00;2.50;;;1.95;;
25153;SDS011;47555;51.038;6.280;2023-08-12T08:47:27;2.80;;;1.95;;
25153;SDS011;47555;51.038;6.280;2023-08-12T08:49:56;3.58;;;1.95;;
25153;SDS011;47555;51.038;6.280;2023-08-12T08:52:22;2.58;;;1.80;;
25153;SDS011;47555;51.038;6.280;2023-08-12T08:54:49;2.28;;;2.08;;
25153;SDS011;47555;51.038;6.280;2023-08-12T08:57:15;2.28;;;1.80;;
25153;SDS011;47555;51.038;6.280;2023-08-12T08:59:41;1.73;;;1.63;;
25153;SDS011;47555;51.038;6.280;2023-08-12T09:02:09;2.28;;;2.00;;
25153;SDS011;47555;51.038;6.280;2023-08-12T09:04:39;1.90;;;1.80;;
25153;SDS011;47555;51.038;6.280;2023-08-12T09:07:05;1.80;;;1.70;;
25153;SDS011;47555;51.038;6.280;2023-08-12T09:09:31;2.72;;;2.53;;
25153;SDS011;47555;51.038;6.280;2023-08-12T09:11:57;3.03;;;1.75;;
25153;SDS011;47555;51.038;6.280;2023-08-12T09:14:23;2.83;;;1.70;;
25153;SDS011;47555;51.038;6.280;2023-08-12T09:16:49;1.42;;;1.33;;
25153;SDS011;47555;51.038;6.280;2023-08-12T09:19:16;1.98;;;1.63;;
25153;SDS011;47555;51.038;6.280;2023-08-12T09:21:42;2.60;;;1.73;;
25153;SDS011;47555;51.038;6.280;2023-08-12T09:24:08;1.35;;;1.25;;
25153;SDS011;47555;51.038;6.280;2023-08-12T09:26:34;1.58;;;1.48;;
25153;SDS011;47555;51.038;6.280;2023-08-12T09:29:00;1.50;;;1.40;;
25153;SDS011;47555;51.038;6.280;2023-08-12T09:31:27;2.38;;;1.60;;
25153;SDS011;47555;51.038;6.280;2023-08-12T09:33:57;2.30;;;1.50;;
25153;SDS011;47555;51.038;6.280;2023-08-12T09:36:23;1.85;;;1.40;;
25153;SDS011;47555;51.038;6.280;2023-08-12T09:38:49;1.88;;;1.10;;
25153;SDS011;47555;51.038;6.280;2023-08-12T09:41:15;1.40;;;1.30;;
25153;SDS011;47555;51.038;6.280;2023-08-12T09:43:41;3.00;;;1.13;;
25153;SDS011;47555;51.038;6.280;2023-08-12T09:46:10;1.02;;;1.00;;
25153;SDS011;47555;51.038;6.280;2023-08-12T09:48:37;1.58;;;1.10;;
25153;SDS011;47555;51.038;6.280;2023-08-12T09:51:03;1.20;;;1.00;;
25153;SDS011;47555;51.038;6.280;2023-08-12T09:53:31;1.65;;;1.20;;
25153;SDS011;47555;51.038;6.280;2023-08-12T09:55:58;1.20;;;1.10;;
25153;SDS011;47555;51.038;6.280;2023-08-12T09:58:25;3.33;;;1.88;;
25153;SDS011;47555;51.038;6.280;2023-08-12T10:00:54;3.00;;;1.50;;
25153;SDS011;47555;51.038;6.280;2023-08-12T10:03:21;1.92;;;1.40;;
25153;SDS011;47555;51.038;6.280;2023-08-12T10:05:47;3.67;;;1.33;;
25153;SDS011;47555;51.038;6.280;2023-08-12T10:08:14;1.70;;;1.60;;
25153;SDS011;47555;51.038;6.280;2023-08-12T10:10:40;1.52;;;1.42;;
25153;SDS011;47555;51.038;6.280;2023-08-12T10:13:07;1.50;;;1.40;;
25153;SDS011;47555;51.038;6.280;2023-08-12T10:15:34;1.90;;;1.60;;
25153;SDS011;47555;51.038;6.280;2023-08-12T10:18:00;1.40;;;1.30;;
25153;SDS011;47555;51.038;6.280;2023-08-12T10:20:26;1.42;;;1.33;;
25153;SDS011;47555;51.038;6.280;2023-08-12T10:22:53;1.90;;;1.40;;
25153;SDS011;47555;51.038;6.280;2023-08-12T10:25:20;2.80;;;1.30;;
25153;SDS011;47555;51.038;6.280;2023-08-12T10:27:49;2.35;;;1.40;;
25153;SDS011;47555;51.038;6.280;2023-08-12T10:30:20;2.22;;;1.50;;
25153;SDS011;47555;51.038;6.280;2023-08-12T10:32:46;2.00;;;1.25;;
25153;SDS011;47555;51.038;6.280;2023-08-12T10:35:12;1.33;;;1.20;;
25153;SDS011;47555;51.038;6.280;2023-08-12T10:37:41;1.23;;;1.13;;
25153;SDS011;47555;51.038;6.280;2023-08-12T10:40:19;1.30;;;1.10;;
25153;SDS011;47555;51.038;6.280;2023-08-12T10:42:46;1.17;;;1.10;;
25153;SDS011;47555;51.038;6.280;2023-08-12T10:45:13;1.20;;;1.10;;
25153;SDS011;47555;51.038;6.280;2023-08-12T10:47:42;0.98;;;0.90;;
25153;SDS011;47555;51.038;6.280;2023-08-12T10:50:16;1.25;;;1.10;;
25153;SDS011;47555;51.038;6.280;2023-08-12T10:52:43;1.30;;;1.00;;
25153;SDS011;47555;51.038;6.280;2023-08-12T10:55:17;1.38;;;1.00;;
25153;SDS011;47555;51.038;6.280;2023-08-12T10:57:43;1.30;;;1.20;;
25153;SDS011;47555;51.038;6.280;2023-08-12T11:00:10;1.25;;;1.10;;
25153;SDS011;47555;51.038;6.280;2023-08-12T11:02:38;0.90;;;0.90;;
25153;SDS011;47555;51.038;6.280;2023-08-12T11:05:09;1.33;;;0.90;;
25153;SDS011;47555;51.038;6.280;2023-08-12T11:07:43;1.27;;;0.90;;
25153;SDS011;47555;51.038;6.280;2023-08-12T11:10:10;0.90;;;0.90;;
25153;SDS011;47555;51.038;6.280;2023-08-12T11:12:39;1.05;;;0.85;;
25153;SDS011;47555;51.038;6.280;2023-08-12T11:15:06;0.82;;;0.80;;
25153;SDS011;47555;51.038;6.280;2023-08-12T11:17:39;0.85;;;0.85;;
25153;SDS011;47555;51.038;6.280;2023-08-12T11:20:06;1.10;;;0.90;;
25153;SDS011;47555;51.038;6.280;2023-08-12T11:22:33;1.00;;;1.00;;
25153;SDS011;47555;51.038;6.280;2023-08-12T11:25:01;0.77;;;0.70;;
25153;SDS011;47555;51.038;6.280;2023-08-12T11:27:28;0.80;;;0.80;;
25153;SDS011;47555;51.038;6.280;2023-08-12T11:29:54;0.90;;;0.73;;
25153;SDS011;47555;51.038;6.280;2023-08-12T11:32:20;1.15;;;1.08;;
25153;SDS011;47555;51.038;6.280;2023-08-12T11:34:46;0.82;;;0.80;;
25153;SDS011;47555;51.038;6.280;2023-08-12T11:37:12;2.25;;;0.80;;
25153;SDS011;47555;51.038;6.280;2023-08-12T11:39:38;0.80;;;0.80;;
25153;SDS011;47555;51.038;6.280;2023-08-12T11:42:04;0.95;;;0.90;;
25153;SDS011;47555;51.038;6.280;2023-08-12T11:44:30;0.80;;;0.80;;
25153;SDS011;47555;51.038;6.280;2023-08-12T11:46:56;2.80;;;1.05;;
25153;SDS011;47555;51.038;6.280;2023-08-12T11:49:22;0.90;;;0.90;;
25153;SDS011;47555;51.038;6.280;2023-08-12T11:51:51;3.70;;;1.40;;
25153;SDS011;47555;51.038;6.280;2023-08-12T11:54:17;1.55;;;1.10;;
25153;SDS011;47555;51.038;6.280;2023-08-12T11:56:43;1.30;;;1.00;;
25153;SDS011;47555;51.038;6.280;2023-08-12T11:59:09;1.70;;;1.10;;
25153;SDS011;47555;51.038;6.280;2023-08-12T12:01:36;1.25;;;0.90;;
25153;SDS011;47555;51.038;6.280;2023-08-12T12:04:02;0.80;;;0.70;;
25153;SDS011;47555;51.038;6.280;2023-08-12T12:06:32;1.10;;;1.00;;
25153;SDS011;47555;51.038;6.280;2023-08-12T12:09:05;3.63;;;1.20;;
25153;SDS011;47555;51.038;6.280;2023-08-12T12:11:32;1.88;;;0.98;;
25153;SDS011;47555;51.038;6.280;2023-08-12T12:14:02;2.22;;;1.30;;
25153;SDS011;47555;51.038;6.280;2023-08-12T12:16:43;1.83;;;1.15;;
25153;SDS011;47555;51.038;6.280;2023-08-12T12:19:22;2.10;;;1.35;;
25153;SDS011;47555;51.038;6.280;2023-08-12T12:21:49;1.80;;;1.23;;
25153;SDS011;47555;51.038;6.280;2023-08-12T12:24:16;2.13;;;1.52;;
25153;SDS011;47555;51.038;6.280;2023-08-12T12:26:42;2.47;;;2.00;;
25153;SDS011;47555;51.038;6.280;2023-08-12T12:29:09;2.75;;;2.00;;
25153;SDS011;47555;51.038;6.280;2023-08-12T12:31:36;4.72;;;2.67;;
25153;SDS011;47555;51.038;6.280;2023-08-12T12:34:03;3.20;;;2.20;;
25153;SDS011;47555;51.038;6.280;2023-08-12T12:36:33;4.70;;;3.78;;
25153;SDS011;47555;51.038;6.280;2023-08-12T12:39:00;3.13;;;2.83;;
25153;SDS011;47555;51.038;6.280;2023-08-12T12:41:27;3.60;;;3.13;;
25153;SDS011;47555;51.038;6.280;2023-08-12T12:43:53;5.40;;;2.25;;
25153;SDS011;47555;51.038;6.280;2023-08-12T12:46:19;2.38;;;1.95;;
25153;SDS011;47555;51.038;6.280;2023-08-12T12:48:45;1.80;;;1.42;;
25153;SDS011;47555;51.038;6.280;2023-08-12T12:51:11;2.47;;;1.15;;
25153;SDS011;47555;51.038;6.280;2023-08-12T12:53:38;2.08;;;1.02;;
25153;SDS011;47555;51.038;6.280;2023-08-12T12:56:04;3.28;;;1.55;;
25153;SDS011;47555;51.038;6.280;2023-08-12T12:58:33;2.80;;;1.30;;
25153;SDS011;47555;51.038;6.280;2023-08-12T13:01:00;1.80;;;1.30;;
25153;SDS011;47555;51.038;6.280;2023-08-12T13:03:26;1.30;;;1.08;;
25153;SDS011;47555;51.038;6.280;2023-08-12T13:05:52;1.52;;;1.20;;
25153;SDS011;47555;51.038;6.280;2023-08-12T13:08:18;1.77;;;1.40;;
25153;SDS011;47555;51.038;6.280;2023-08-12T13:10:44;1.40;;;1.30;;
25153;SDS011;47555;51.038;6.280;2023-08-12T13:13:12;1.77;;;1.40;;
25153;SDS011;47555;51.038;6.280;2023-08-12T13:15:38;2.53;;;1.63;;
25153;SDS011;47555;51.038;6.280;2023-08-12T13:18:04;3.67;;;1.60;;
25153;SDS011;47555;51.038;6.280;2023-08-12T13:20:30;2.92;;;1.58;;
25153;SDS011;47555;51.038;6.280;2023-08-12T13:22:56;1.40;;;1.30;;
25153;SDS011;47555;51.038;6.280;2023-08-12T13:25:22;2.75;;;1.63;;
25153;SDS011;47555;51.038;6.280;2023-08-12T13:27:48;2.63;;;1.20;;
25153;SDS011;47555;51.038;6.280;2023-08-12T13:30:14;2.92;;;1.55;;
25153;SDS011;47555;51.038;6.280;2023-08-12T13:32:40;1.30;;;1.20;;
25153;SDS011;47555;51.038;6.280;2023-08-12T13:35:06;2.10;;;1.33;;
25153;SDS011;47555;51.038;6.280;2023-08-12T13:37:32;1.98;;;1.42;;
25153;SDS011;47555;51.038;6.280;2023-08-12T13:39:58;2.33;;;1.33;;
25153;SDS011;47555;51.038;6.280;2023-08-12T13:42:24;2.10;;;1.40;;
25153;SDS011;47555;51.038;6.280;2023-08-12T13:44:50;1.48;;;1.38;;
25153;SDS011;47555;51.038;6.280;2023-08-12T13:47:16;2.00;;;1.70;;
25153;SDS011;47555;51.038;6.280;2023-08-12T13:49:42;1.55;;;1.35;;
25153;SDS011;47555;51.038;6.280;2023-08-12T13:52:08;2.00;;;1.40;;
25153;SDS011;47555;51.038;6.280;2023-08-12T13:54:34;2.63;;;1.52;;
25153;SDS011;47555;51.038;6.280;2023-08-12T13:57:00;1.83;;;1.52;;
25153;SDS011;47555;51.038;6.280;2023-08-12T13:59:27;3.20;;;1.55;;
25153;SDS011;47555;51.038;6.280;2023-08-12T14:01:52;2.15;;;1.83;;
25153;SDS011;47555;51.038;6.280;2023-08-12T14:04:18;2.20;;;1.60;;
25153;SDS011;47555;51.038;6.280;2023-08-12T14:06:44;2.47;;;1.50;;
25153;SDS011;47555;51.038;6.280;2023-08-12T14:09:11;1.95;;;1.40;;
25153;SDS011;47555;51.038;6.280;2023-08-12T14:11:39;2.40;;;1.45;;
25153;SDS011;47555;51.038;6.280;2023-08-12T14:14:04;2.53;;;1.50;;
25153;SDS011;47555;51.038;6.280;2023-08-12T14:16:30;1.58;;;1.48;;
25153;SDS011;47555;51.038;6.280;2023-08-12T14:18:56;1.52;;;1.38;;
25153;SDS011;47555;51.038;6.280;2023-08-12T14:21:22;3.05;;;1.58;;
25153;SDS011;47555;51.038;6.280;2023-08-12T14:23:48;1.40;;;1.20;;
25153;SDS011;47555;51.038;6.280;2023-08-12T14:26:14;1.55;;;1.42;;
25153;SDS011;47555;51.038;6.280;2023-08-12T14:28:40;2.85;;;1.92;;
25153;SDS011;47555;51.038;6.280;2023-08-12T14:31:07;2.20;;;1.40;;
25153;SDS011;47555;51.038;6.280;2023-08-12T14:33:33;3.03;;;1.48;;
25153;SDS011;47555;51.038;6.280;2023-08-12T14:35:59;2.47;;;1.55;;
25153;SDS011;47555;51.038;6.280;2023-08-12T14:38:24;3.10;;;1.77;;
25153;SDS011;47555;51.038;6.280;2023-08-12T14:40:50;2.75;;;1.77;;
25153;SDS011;47555;51.038;6.280;2023-08-12T14:43:16;2.00;;;1.63;;